LIPZ METAR and TAF | Updated Today

LIPZ METAR

Venice Marco Polo Airport

Observation time: 38 min. ago

LIPZ 061820Z 06006KT CAVOK 02/M02 Q1034 NOSIG

Need help? Read our tutorial on how to read METARs or read the parsed version below.

Venice Marco Polo Airport (LIPZ) METAR

  • Weather conditions on Mon, 06 Feb 2023 18:20:00 +0000 (38 min. ago):
  • Present conditions: Dry
  • Clouds: Clear skies
  • Visibility: Greater than 10 km
  • Wind: 60 degrees at 6 knots
  • Temperature: 2 celsius
  • Dew point: -2 celsius
  • Pressure: 1034 millibars
  • Remarks: None


Useful to know...

LIPZ TAF

Venice Marco Polo Airport

TAF LIPZ 061700Z 0618/0724 07010KT 9999 BKN040 BECMG 0703/0705 VRB05KT BECMG 0719/0721 03010KT
Observation time: 1:58 hr. ago
Need help? Read our tutorial on how to read TAFs or read the parsed version below.

Parsed version of TAF for Venice Marco Polo Airport (LIPZ)

  • From 06 February at 18:00 UTC, to day 07 of the month at 24:00 UTC
  • Clouds: Broken sky at 1219 meters
  • Visibility: Greater than 10 km
  • Wind: 70 degrees at 10
  • Expected to arise soon, from 07 February at 03:00 UTC, to day 07 of the month at 05:00 UTC
  • Wind: Variable at 5
  • Expected to arise soon, from 07 February at 19:00 UTC, to day 07 of the month at 21:00 UTC
  • Wind: 30 degrees at 10